createdAt,value
2022-08-16T00:02:31.590Z,3.10
2022-08-16T00:04:59.599Z,3.30
2022-08-16T00:07:29.214Z,2.92
2022-08-16T00:09:57.283Z,3.20
2022-08-16T00:12:24.294Z,3.50
2022-08-16T00:14:56.651Z,3.45
2022-08-16T00:17:24.100Z,2.95
2022-08-16T00:19:53.332Z,3.05
2022-08-16T00:22:24.947Z,3.22
2022-08-16T00:24:54.297Z,3.50
2022-08-16T00:27:21.951Z,3.00
2022-08-16T00:30:00.851Z,3.10
2022-08-16T00:32:35.480Z,3.83
2022-08-16T00:35:02.068Z,3.63
2022-08-16T00:37:57.057Z,4.00
2022-08-16T00:40:33.995Z,4.38
2022-08-16T00:43:12.143Z,4.97
2022-08-16T00:46:00.652Z,4.40
2022-08-16T00:48:30.924Z,4.70
2022-08-16T00:50:58.240Z,4.47
2022-08-16T00:53:26.778Z,4.40
2022-08-16T00:56:00.595Z,3.83
2022-08-16T00:58:34.421Z,4.70
2022-08-16T01:01:02.952Z,4.60
2022-08-16T01:03:30.537Z,4.65
2022-08-16T01:05:58.794Z,4.70
2022-08-16T01:08:35.813Z,4.47
2022-08-16T01:11:05.471Z,4.50
2022-08-16T01:13:36.690Z,5.00
2022-08-16T01:16:10.269Z,4.45
2022-08-16T01:19:01.201Z,4.28
2022-08-16T01:21:42.611Z,4.70
2022-08-16T01:24:51.985Z,4.40
2022-08-16T01:27:18.851Z,4.70
2022-08-16T01:30:20.161Z,3.58
2022-08-16T01:33:01.304Z,4.47
2022-08-16T01:35:40.814Z,4.28
2022-08-16T01:38:22.104Z,4.63
2022-08-16T01:40:55.691Z,4.97
2022-08-16T01:43:24.268Z,4.55
2022-08-16T01:45:59.525Z,4.43
2022-08-16T01:48:46.581Z,4.32
2022-08-16T01:51:16.989Z,4.70
2022-08-16T01:53:43.981Z,5.35
2022-08-16T01:56:23.239Z,4.50
2022-08-16T01:58:51.541Z,4.40
2022-08-16T02:01:18.460Z,4.15
2022-08-16T02:03:45.073Z,4.18
2022-08-16T02:06:34.293Z,4.40
2022-08-16T02:09:05.668Z,4.28
2022-08-16T02:11:47.391Z,4.15
2022-08-16T02:14:18.609Z,4.50
2022-08-16T02:16:48.403Z,4.75
2022-08-16T02:19:16.132Z,3.90
2022-08-16T02:22:07.631Z,4.53
2022-08-16T02:24:42.337Z,4.18
2022-08-16T02:27:13.189Z,4.15
2022-08-16T02:29:41.349Z,4.60
2022-08-16T02:32:49.768Z,4.30
2022-08-16T02:34:57.363Z,4.88
2022-08-16T02:37:24.022Z,3.95
2022-08-16T02:40:13.392Z,4.53
2022-08-16T02:42:49.581Z,4.30
2022-08-16T02:45:18.004Z,3.42
2022-08-16T02:48:01.534Z,3.97
2022-08-16T02:50:54.005Z,4.20
2022-08-16T02:53:18.538Z,4.63
2022-08-16T02:55:50.706Z,4.20
2022-08-16T02:58:17.547Z,4.50
2022-08-16T03:00:45.481Z,4.70
2022-08-16T03:03:17.950Z,4.32
2022-08-16T03:05:52.174Z,4.18
2022-08-16T03:08:50.677Z,4.60
2022-08-16T03:11:16.585Z,4.68
2022-08-16T03:13:51.417Z,4.90
2022-08-16T03:16:38.060Z,4.20
2022-08-16T03:19:06.017Z,4.43
2022-08-16T03:21:38.203Z,4.28
2022-08-16T03:24:28.282Z,3.97
2022-08-16T03:26:58.058Z,4.07
2022-08-16T03:29:30.527Z,3.90
2022-08-16T03:31:59.062Z,4.40
2022-08-16T03:34:26.427Z,4.75
2022-08-16T03:36:53.363Z,4.03
2022-08-16T03:39:20.371Z,4.47
2022-08-16T03:41:49.721Z,3.33
2022-08-16T03:44:43.985Z,4.25
2022-08-16T03:47:04.845Z,3.72
2022-08-16T03:49:37.418Z,4.05
2022-08-16T03:52:04.480Z,4.50
2022-08-16T03:54:31.144Z,4.22
2022-08-16T03:56:58.883Z,4.45
2022-08-16T03:59:25.901Z,4.18
2022-08-16T04:01:56.603Z,3.78
2022-08-16T04:04:33.504Z,3.83
2022-08-16T04:07:02.688Z,4.60
2022-08-16T04:09:31.362Z,4.55
2022-08-16T04:12:11.289Z,4.47
2022-08-16T04:14:52.166Z,4.20
2022-08-16T04:17:18.769Z,4.20
2022-08-16T04:19:46.630Z,4.32
2022-08-16T04:22:17.141Z,4.53
2022-08-16T04:24:54.187Z,4.20
2022-08-16T04:27:22.314Z,4.22
2022-08-16T04:29:52.185Z,4.50
2022-08-16T04:32:19.788Z,4.20
2022-08-16T04:34:48.482Z,4.65
2022-08-16T04:37:16.161Z,4.55
2022-08-16T04:39:46.951Z,4.20
2022-08-16T04:42:26.261Z,4.45
2022-08-16T04:44:58.414Z,4.60
2022-08-16T04:47:33.323Z,4.90
2022-08-16T04:50:09.598Z,5.40
2022-08-16T04:52:36.664Z,5.53
2022-08-16T04:55:09.530Z,4.35
2022-08-16T04:57:39.271Z,4.85
2022-08-16T05:00:30.480Z,5.13
2022-08-16T05:02:58.892Z,5.32
2022-08-16T05:05:26.059Z,5.05
2022-08-16T05:08:00.537Z,5.00
2022-08-16T05:10:29.575Z,5.18
2022-08-16T05:12:57.891Z,4.78
2022-08-16T05:15:25.398Z,4.78
2022-08-16T05:17:58.614Z,4.97
2022-08-16T05:20:35.723Z,5.05
2022-08-16T05:23:12.027Z,4.90
2022-08-16T05:25:48.572Z,4.80
2022-08-16T05:28:16.997Z,5.18
2022-08-16T05:30:43.656Z,4.90
2022-08-16T05:33:16.269Z,4.90
2022-08-16T05:35:44.334Z,5.07
2022-08-16T05:38:32.517Z,4.95
2022-08-16T05:41:06.871Z,4.95
2022-08-16T05:43:46.555Z,5.68
2022-08-16T05:46:29.597Z,5.32
2022-08-16T05:49:03.790Z,4.82
2022-08-16T05:51:39.993Z,4.53
2022-08-16T05:54:13.932Z,4.38
2022-08-16T05:56:42.993Z,5.03
2022-08-16T05:59:10.777Z,5.07
2022-08-16T06:01:39.124Z,4.20
2022-08-16T06:04:13.155Z,4.32
2022-08-16T06:06:56.559Z,3.85
2022-08-16T06:09:25.292Z,4.20
2022-08-16T06:11:52.237Z,4.32
2022-08-16T06:14:19.327Z,3.65
2022-08-16T06:16:50.798Z,3.60
2022-08-16T06:19:18.044Z,4.03
2022-08-16T06:21:45.247Z,3.60
2022-08-16T06:24:54.509Z,3.55
2022-08-16T06:26:58.578Z,4.18
2022-08-16T06:29:25.327Z,3.15
2022-08-16T06:31:53.595Z,4.07
2022-08-16T06:34:54.980Z,4.00
2022-08-16T06:37:07.720Z,4.10
2022-08-16T06:39:46.717Z,4.07
2022-08-16T06:42:18.265Z,3.70
2022-08-16T06:44:45.862Z,4.00
2022-08-16T06:47:17.038Z,3.78
2022-08-16T06:49:44.272Z,4.07
2022-08-16T06:52:57.566Z,3.80
2022-08-16T06:55:13.022Z,4.38
2022-08-16T06:57:41.358Z,3.95
2022-08-16T07:00:24.253Z,4.00
2022-08-16T07:02:53.489Z,3.25
2022-08-16T07:05:21.077Z,3.75
2022-08-16T07:07:54.192Z,3.83
2022-08-16T07:10:25.825Z,3.50
2022-08-16T07:13:03.993Z,3.10
2022-08-16T07:15:38.182Z,3.47
2022-08-16T07:18:20.253Z,3.20
2022-08-16T07:20:48.450Z,3.70
2022-08-16T07:23:15.869Z,3.13
2022-08-16T07:25:43.101Z,3.13
2022-08-16T07:28:20.751Z,3.30
2022-08-16T07:30:48.476Z,3.70
2022-08-16T07:33:21.434Z,3.80
2022-08-16T07:36:08.730Z,3.55
2022-08-16T07:38:36.787Z,3.42
2022-08-16T07:41:10.152Z,3.30
2022-08-16T07:43:40.594Z,3.35
2022-08-16T07:46:39.013Z,3.63
2022-08-16T07:49:02.089Z,3.28
2022-08-16T07:51:33.148Z,3.72
2022-08-16T07:54:09.684Z,3.42
2022-08-16T07:56:37.931Z,3.20
2022-08-16T07:59:06.267Z,4.18
2022-08-16T08:01:34.701Z,3.53
2022-08-16T08:04:03.445Z,3.53
2022-08-16T08:06:32.358Z,3.80
2022-08-16T08:09:00.268Z,4.07
2022-08-16T08:11:29.197Z,3.63
2022-08-16T08:13:57.639Z,3.40
2022-08-16T08:16:31.100Z,3.97
2022-08-16T08:19:01.010Z,3.33
2022-08-16T08:24:16.212Z,3.50
2022-08-16T08:26:43.561Z,4.00
2022-08-16T08:29:12.024Z,4.18
2022-08-16T08:31:42.295Z,3.15
2022-08-16T08:34:09.251Z,3.92
2022-08-16T08:36:39.973Z,3.30
2022-08-16T08:39:13.260Z,3.30
2022-08-16T08:41:42.404Z,3.85
2022-08-16T08:44:29.465Z,3.35
2022-08-16T08:47:00.177Z,3.72
2022-08-16T08:49:46.292Z,3.45
2022-08-16T08:52:35.304Z,6.10
2022-08-16T08:55:09.532Z,4.32
2022-08-16T08:57:40.925Z,3.85
2022-08-16T09:00:13.743Z,3.80
2022-08-16T09:02:44.471Z,4.63
2022-08-16T09:05:15.787Z,4.18
2022-08-16T09:10:29.524Z,4.40
2022-08-16T09:12:56.600Z,3.72
2022-08-16T09:15:24.038Z,4.03
2022-08-16T09:17:54.782Z,3.80
2022-08-16T09:20:25.529Z,4.38
2022-08-16T09:22:53.084Z,4.38
2022-08-16T09:25:26.271Z,4.13
2022-08-16T09:27:57.219Z,4.70
2022-08-16T09:30:33.483Z,4.18
2022-08-16T09:33:06.588Z,4.18
2022-08-16T09:35:37.273Z,4.20
2022-08-16T09:38:08.628Z,4.78
2022-08-16T09:40:42.627Z,3.72
2022-08-16T09:43:21.043Z,4.32
2022-08-16T09:45:58.762Z,3.88
2022-08-16T09:48:44.445Z,4.40
2022-08-16T09:51:15.227Z,3.60
2022-08-16T09:53:42.065Z,6.50
2022-08-16T09:56:31.741Z,4.65
2022-08-16T09:59:03.959Z,5.00
2022-08-16T10:01:36.502Z,4.60
2022-08-16T10:04:04.712Z,4.68
2022-08-16T10:06:34.231Z,4.90
2022-08-16T10:09:05.866Z,4.30
2022-08-16T10:11:52.734Z,4.97
2022-08-16T10:14:24.829Z,4.40
2022-08-16T10:17:02.349Z,4.57
2022-08-16T10:19:31.796Z,4.03
2022-08-16T10:21:59.790Z,5.10
2022-08-16T10:24:32.652Z,4.80
2022-08-16T10:27:25.716Z,4.10
2022-08-16T10:30:00.536Z,5.03
2022-08-16T10:32:30.329Z,4.38
2022-08-16T10:34:57.849Z,4.68
2022-08-16T10:37:32.823Z,4.88
2022-08-16T10:40:28.276Z,4.95
2022-08-16T10:42:53.863Z,4.05
2022-08-16T10:45:20.679Z,4.90
2022-08-16T10:47:48.644Z,4.53
2022-08-16T10:50:29.451Z,4.75
2022-08-16T10:52:59.306Z,4.35
2022-08-16T10:55:45.215Z,5.05
2022-08-16T10:58:16.855Z,4.50
2022-08-16T11:06:00.573Z,4.50
2022-08-16T11:08:36.437Z,4.50
2022-08-16T11:11:12.813Z,4.68
2022-08-16T11:14:05.929Z,3.92
2022-08-16T11:19:22.750Z,4.32
2022-08-16T11:24:43.316Z,4.32
2022-08-16T11:27:20.574Z,5.00
2022-08-16T11:29:52.075Z,4.20
2022-08-16T11:32:20.126Z,4.50
2022-08-16T11:35:14.122Z,4.43
2022-08-16T11:38:06.154Z,5.50
2022-08-16T11:40:32.754Z,4.85
2022-08-16T11:43:00.192Z,4.88
2022-08-16T11:45:26.873Z,4.57
2022-08-16T11:47:54.651Z,4.55
2022-08-16T11:50:21.959Z,5.65
2022-08-16T11:52:48.540Z,4.70
2022-08-16T11:55:15.116Z,5.13
2022-08-16T11:57:41.694Z,4.32
2022-08-16T12:00:33.854Z,4.70
2022-08-16T12:05:27.410Z,4.10
2022-08-16T12:07:55.630Z,5.00
2022-08-16T12:10:24.627Z,4.75
2022-08-16T12:12:55.222Z,4.35
2022-08-16T12:15:26.485Z,4.95
2022-08-16T12:17:55.672Z,4.60
2022-08-16T12:20:26.094Z,4.10
2022-08-16T12:22:56.907Z,4.65
2022-08-16T12:25:26.877Z,4.38
2022-08-16T12:27:55.011Z,4.63
2022-08-16T12:30:32.157Z,4.60
2022-08-16T12:33:03.129Z,4.60
2022-08-16T12:35:31.527Z,4.68
2022-08-16T12:38:00.065Z,4.28
2022-08-16T12:40:31.669Z,4.18
2022-08-16T12:43:01.400Z,4.32
2022-08-16T12:45:39.108Z,4.15
2022-08-16T12:48:32.719Z,4.03
2022-08-16T12:51:01.086Z,4.35
2022-08-16T12:53:32.117Z,4.07
2022-08-16T12:55:59.495Z,4.35
2022-08-16T12:58:48.529Z,5.13
2022-08-16T13:01:14.907Z,4.95
2022-08-16T13:03:43.326Z,4.28
2022-08-16T13:06:10.235Z,4.45
2022-08-16T13:08:39.938Z,4.43
2022-08-16T13:11:07.827Z,4.15
2022-08-16T13:13:35.640Z,4.13
2022-08-16T13:16:15.433Z,4.38
2022-08-16T13:18:51.547Z,4.05
2022-08-16T13:21:19.896Z,4.30
2022-08-16T13:23:51.226Z,4.38
2022-08-16T13:26:22.469Z,4.82
2022-08-16T13:28:49.964Z,4.53
2022-08-16T13:31:16.845Z,4.50
2022-08-16T13:33:44.127Z,4.57
2022-08-16T13:36:26.117Z,4.80
2022-08-16T13:39:00.015Z,4.80
2022-08-16T13:41:30.104Z,5.25
2022-08-16T13:44:00.804Z,5.28
2022-08-16T13:46:32.344Z,4.50
2022-08-16T13:48:59.471Z,4.60
2022-08-16T13:51:29.223Z,4.30
2022-08-16T13:54:03.297Z,5.28
2022-08-16T13:56:36.969Z,4.35
2022-08-16T13:59:06.259Z,4.78
2022-08-16T14:01:44.088Z,4.50
2022-08-16T14:04:18.961Z,4.70
2022-08-16T14:06:52.866Z,4.82
2022-08-16T14:09:20.241Z,4.60
2022-08-16T14:11:46.838Z,4.05
2022-08-16T14:14:16.535Z,4.57
2022-08-16T14:16:44.616Z,4.75
2022-08-16T14:19:12.010Z,4.70
2022-08-16T14:21:40.920Z,5.15
2022-08-16T14:24:22.383Z,4.78
2022-08-16T14:26:56.888Z,4.57
2022-08-16T14:29:23.440Z,4.20
2022-08-16T14:31:53.531Z,4.40
2022-08-16T14:34:21.367Z,4.40
2022-08-16T14:36:52.990Z,4.25
2022-08-16T14:39:22.024Z,5.80
2022-08-16T14:41:49.210Z,5.10
2022-08-16T14:44:19.997Z,5.25
2022-08-16T14:46:46.848Z,4.43
2022-08-16T14:49:14.399Z,4.25
2022-08-16T14:51:41.111Z,4.35
2022-08-16T14:54:11.055Z,4.93
2022-08-16T14:56:42.892Z,4.47
2022-08-16T14:59:13.304Z,5.03
2022-08-16T15:01:58.062Z,4.35
2022-08-16T15:04:39.197Z,4.47
2022-08-16T15:07:06.778Z,4.30
2022-08-16T15:09:44.618Z,4.25
2022-08-16T15:12:31.130Z,5.13
2022-08-16T15:15:04.337Z,4.72
2022-08-16T15:17:39.497Z,5.00
2022-08-16T15:20:08.435Z,4.53
2022-08-16T15:22:39.230Z,4.80
2022-08-16T15:25:10.549Z,4.28
2022-08-16T15:33:06.764Z,4.45
2022-08-16T15:35:36.644Z,5.20
2022-08-16T15:38:09.070Z,4.53
2022-08-16T15:40:37.150Z,4.70
2022-08-16T15:43:23.691Z,5.30
2022-08-16T15:46:35.230Z,4.68
2022-08-16T15:49:05.662Z,5.03
2022-08-16T15:51:34.306Z,5.00
2022-08-16T15:54:21.358Z,4.50
2022-08-16T15:56:51.476Z,4.43
2022-08-16T15:59:19.228Z,4.57
2022-08-16T16:01:46.721Z,4.72
2022-08-16T16:04:14.957Z,4.30
2022-08-16T16:06:55.121Z,4.40
2022-08-16T16:09:26.148Z,5.00
2022-08-16T16:12:16.294Z,4.75
2022-08-16T16:14:52.131Z,4.90
2022-08-16T16:17:18.714Z,4.80
2022-08-16T16:19:45.276Z,4.80
2022-08-16T16:22:16.419Z,5.47
2022-08-16T16:24:47.035Z,5.10
2022-08-16T16:27:14.033Z,5.25
2022-08-16T16:29:42.822Z,5.13
2022-08-16T16:32:13.441Z,4.53
2022-08-16T16:34:43.175Z,4.80
2022-08-16T16:37:10.393Z,4.65
2022-08-16T16:39:37.720Z,4.93
2022-08-16T16:42:05.719Z,5.45
2022-08-16T16:44:36.349Z,5.10
2022-08-16T16:49:32.896Z,5.32
2022-08-16T16:52:07.063Z,5.18
2022-08-16T16:54:35.559Z,5.57
2022-08-16T16:57:02.419Z,5.32
2022-08-16T16:59:29.225Z,5.00
2022-08-16T17:02:38.929Z,5.53
2022-08-16T17:04:46.229Z,4.90
2022-08-16T17:07:14.343Z,5.43
2022-08-16T17:09:41.442Z,4.97
2022-08-16T17:12:10.226Z,4.97
2022-08-16T17:14:47.197Z,5.28
2022-08-16T17:17:13.989Z,5.40
2022-08-16T17:19:41.717Z,5.20
2022-08-16T17:22:19.795Z,5.15
2022-08-16T17:24:50.963Z,5.53
2022-08-16T17:27:32.554Z,5.75
2022-08-16T17:30:02.639Z,5.93
2022-08-16T17:32:47.458Z,5.15
2022-08-16T17:35:19.060Z,5.35
2022-08-16T17:37:50.821Z,4.90
2022-08-16T17:40:25.658Z,5.28
2022-08-16T17:43:08.177Z,5.50
2022-08-16T17:45:34.962Z,5.32
2022-08-16T17:48:01.585Z,5.70
2022-08-16T17:50:29.028Z,5.43
2022-08-16T17:52:56.804Z,5.40
2022-08-16T17:55:28.213Z,5.65
2022-08-16T17:57:54.829Z,5.10
2022-08-16T18:00:23.159Z,5.35
2022-08-16T18:02:51.759Z,4.75
2022-08-16T18:05:19.717Z,4.78
2022-08-16T18:07:47.409Z,4.88
2022-08-16T18:10:32.577Z,5.47
2022-08-16T18:13:00.992Z,5.63
2022-08-16T18:15:28.197Z,5.10
2022-08-16T18:17:54.868Z,4.80
2022-08-16T18:20:41.791Z,5.18
2022-08-16T18:23:21.870Z,4.88
2022-08-16T18:28:22.688Z,5.20
2022-08-16T18:30:51.974Z,4.63
2022-08-16T18:33:22.639Z,5.00
2022-08-16T18:35:54.290Z,4.82
2022-08-16T18:38:23.740Z,4.68
2022-08-16T18:40:50.525Z,5.13
2022-08-16T18:43:19.805Z,4.80
2022-08-16T18:45:50.110Z,5.22
2022-08-16T18:48:17.913Z,4.38
2022-08-16T18:51:03.836Z,5.07
2022-08-16T18:53:32.487Z,4.70
2022-08-16T18:56:01.172Z,5.35
2022-08-16T18:58:29.906Z,5.22
2022-08-16T19:00:57.465Z,5.55
2022-08-16T19:03:27.368Z,4.60
2022-08-16T19:05:58.911Z,4.78
2022-08-16T19:08:26.073Z,5.07
2022-08-16T19:10:53.350Z,4.40
2022-08-16T19:13:22.790Z,4.68
2022-08-16T19:15:51.823Z,4.78
2022-08-16T19:18:18.944Z,4.50
2022-08-16T19:20:46.990Z,4.57
2022-08-16T19:23:15.978Z,4.43
2022-08-16T19:25:48.590Z,4.40
2022-08-16T19:28:50.993Z,5.10
2022-08-16T19:31:26.302Z,4.88
2022-08-16T19:33:56.361Z,4.70
2022-08-16T19:36:31.876Z,4.55
2022-08-16T19:39:13.706Z,4.75
2022-08-16T19:41:46.532Z,4.18
2022-08-16T19:44:21.231Z,4.85
2022-08-16T19:46:49.151Z,4.75
2022-08-16T19:49:16.740Z,4.72
2022-08-16T19:51:45.030Z,4.80
2022-08-16T19:54:11.616Z,5.07
2022-08-16T19:56:38.083Z,4.75
2022-08-16T19:59:21.941Z,4.57
2022-08-16T20:01:51.837Z,4.40
2022-08-16T20:04:18.655Z,4.75
2022-08-16T20:06:45.265Z,4.63
2022-08-16T20:09:14.921Z,4.93
2022-08-16T20:11:44.752Z,4.82
2022-08-16T20:14:24.214Z,4.45
2022-08-16T20:16:58.484Z,4.75
2022-08-16T20:19:27.670Z,4.75
2022-08-16T20:21:56.388Z,4.20
2022-08-16T20:24:34.090Z,4.65
2022-08-16T20:27:03.061Z,4.75
2022-08-16T20:29:29.628Z,4.47
2022-08-16T20:31:56.198Z,4.85
2022-08-16T20:34:22.767Z,4.97
2022-08-16T20:36:49.293Z,4.38
2022-08-16T20:39:15.927Z,4.65
2022-08-16T20:41:43.287Z,4.72
2022-08-16T20:44:11.223Z,4.30
2022-08-16T20:46:39.731Z,4.50
2022-08-16T20:49:09.023Z,4.80
2022-08-16T20:51:46.620Z,4.30
2022-08-16T20:54:16.574Z,4.72
2022-08-16T20:56:43.126Z,4.60
2022-08-16T20:59:09.644Z,4.72
2022-08-16T21:01:46.479Z,4.80
2022-08-16T21:04:17.312Z,4.30
2022-08-16T21:06:53.750Z,4.97
2022-08-16T21:09:33.506Z,3.90
2022-08-16T21:12:03.794Z,4.72
2022-08-16T21:14:33.819Z,4.50
2022-08-16T21:17:06.355Z,4.45
2022-08-16T21:19:33.300Z,5.25
2022-08-16T21:22:14.880Z,4.55
2022-08-16T21:27:09.735Z,5.13
2022-08-16T21:29:42.958Z,4.38
2022-08-16T21:32:35.354Z,4.18
2022-08-16T21:35:11.853Z,4.00
2022-08-16T21:37:38.921Z,5.10
2022-08-16T21:40:08.684Z,5.50
2022-08-16T21:42:36.775Z,4.88
2022-08-16T21:45:03.705Z,4.70
2022-08-16T21:47:30.215Z,5.20
2022-08-16T21:49:58.016Z,4.90
2022-08-16T21:52:26.239Z,5.90
2022-08-16T21:54:56.345Z,5.10
2022-08-16T21:57:23.851Z,5.03
2022-08-16T21:59:52.006Z,4.30
2022-08-16T22:02:21.960Z,5.07
2022-08-16T22:04:48.875Z,5.35
2022-08-16T22:07:18.077Z,4.35
2022-08-16T22:09:46.666Z,5.35
2022-08-16T22:12:26.227Z,5.05
2022-08-16T22:14:53.317Z,5.35
2022-08-16T22:17:20.247Z,5.32
2022-08-16T22:19:47.440Z,4.60
2022-08-16T22:22:14.142Z,5.50
2022-08-16T22:24:40.941Z,4.72
2022-08-16T22:27:07.553Z,4.78
2022-08-16T22:29:34.274Z,4.88
2022-08-16T22:32:03.224Z,4.70
2022-08-16T22:34:31.437Z,5.15
2022-08-16T22:36:58.314Z,5.63
2022-08-16T22:39:25.149Z,5.72
2022-08-16T22:41:52.130Z,5.35
2022-08-16T22:44:19.124Z,5.80
2022-08-16T22:46:45.682Z,5.50
2022-08-16T22:49:12.407Z,4.72
2022-08-16T22:51:40.305Z,5.50
2022-08-16T22:54:45.925Z,5.43
2022-08-16T22:56:53.683Z,5.20
2022-08-16T22:59:20.236Z,5.88
2022-08-16T23:01:46.964Z,5.53
2022-08-16T23:04:13.524Z,5.57
2022-08-16T23:06:40.134Z,4.70
2022-08-16T23:09:06.661Z,5.00
2022-08-16T23:11:33.301Z,6.53
2022-08-16T23:14:00.069Z,5.75
2022-08-16T23:16:33.051Z,5.65
2022-08-16T23:19:09.078Z,5.55
2022-08-16T23:21:37.237Z,6.38
2022-08-16T23:24:04.849Z,5.70
2022-08-16T23:26:45.037Z,6.07
2022-08-16T23:29:22.097Z,4.90
2022-08-16T23:31:53.490Z,5.82
2022-08-16T23:34:21.344Z,5.50
2022-08-16T23:36:47.940Z,6.03
2022-08-16T23:39:14.454Z,6.82
2022-08-16T23:41:41.021Z,5.80
2022-08-16T23:44:56.559Z,6.60
2022-08-16T23:46:54.148Z,6.03
2022-08-16T23:50:01.795Z,6.18
2022-08-16T23:52:08.947Z,6.40
2022-08-16T23:54:36.369Z,6.30
2022-08-16T23:57:03.823Z,6.25
2022-08-16T23:59:30.393Z,5.93
